sensor_id;sensor_type;location;lat;lon;timestamp;temperature;humidity
22364;DHT22;11349;53.412;-1.328;2023-03-01T00:01:10;5.50;99.90
22364;DHT22;11349;53.412;-1.328;2023-03-01T00:03:36;5.60;99.90
22364;DHT22;11349;53.412;-1.328;2023-03-01T00:06:03;5.60;99.90
22364;DHT22;11349;53.412;-1.328;2023-03-01T00:08:30;5.60;99.90
22364;DHT22;11349;53.412;-1.328;2023-03-01T00:11:13;5.60;99.90
22364;DHT22;11349;53.412;-1.328;2023-03-01T00:13:42;5.50;99.90
22364;DHT22;11349;53.412;-1.328;2023-03-01T00:16:16;5.60;99.90
22364;DHT22;11349;53.412;-1.328;2023-03-01T00:18:42;5.60;99.90
22364;DHT22;11349;53.412;-1.328;2023-03-01T00:21:08;5.50;99.90
22364;DHT22;11349;53.412;-1.328;2023-03-01T00:23:35;5.50;99.90
22364;DHT22;11349;53.412;-1.328;2023-03-01T00:26:01;5.50;99.90
22364;DHT22;11349;53.412;-1.328;2023-03-01T00:28:26;5.50;99.90
22364;DHT22;11349;53.412;-1.328;2023-03-01T00:30:52;5.50;99.90
22364;DHT22;11349;53.412;-1.328;2023-03-01T00:33:19;5.50;99.90
22364;DHT22;11349;53.412;-1.328;2023-03-01T00:35:45;5.60;99.90
22364;DHT22;11349;53.412;-1.328;2023-03-01T00:38:10;5.50;99.90
22364;DHT22;11349;53.412;-1.328;2023-03-01T00:40:37;5.50;99.90
22364;DHT22;11349;53.412;-1.328;2023-03-01T00:43:03;5.50;99.90
22364;DHT22;11349;53.412;-1.328;2023-03-01T00:45:32;5.50;99.90
22364;DHT22;11349;53.412;-1.328;2023-03-01T00:47:58;5.60;99.90
22364;DHT22;11349;53.412;-1.328;2023-03-01T00:50:24;5.60;99.90
22364;DHT22;11349;53.412;-1.328;2023-03-01T00:52:56;5.60;99.90
22364;DHT22;11349;53.412;-1.328;2023-03-01T00:55:22;5.50;99.90
22364;DHT22;11349;53.412;-1.328;2023-03-01T00:57:48;5.50;99.90
22364;DHT22;11349;53.412;-1.328;2023-03-01T01:00:14;5.50;99.90
22364;DHT22;11349;53.412;-1.328;2023-03-01T01:02:40;5.40;99.90
22364;DHT22;11349;53.412;-1.328;2023-03-01T01:05:06;5.40;99.90
22364;DHT22;11349;53.412;-1.328;2023-03-01T01:07:32;5.40;99.90
22364;DHT22;11349;53.412;-1.328;2023-03-01T01:09:58;5.40;99.90
22364;DHT22;11349;53.412;-1.328;2023-03-01T01:12:24;5.40;99.90
22364;DHT22;11349;53.412;-1.328;2023-03-01T01:14:50;5.40;99.90
22364;DHT22;11349;53.412;-1.328;2023-03-01T01:17:15;5.40;99.90
22364;DHT22;11349;53.412;-1.328;2023-03-01T01:19:41;5.40;99.90
22364;DHT22;11349;53.412;-1.328;2023-03-01T01:22:07;5.40;99.90
22364;DHT22;11349;53.412;-1.328;2023-03-01T01:24:36;5.40;99.90
22364;DHT22;11349;53.412;-1.328;2023-03-01T01:27:01;5.40;99.90
22364;DHT22;11349;53.412;-1.328;2023-03-01T01:29:27;5.40;99.90
22364;DHT22;11349;53.412;-1.328;2023-03-01T01:31:53;5.40;99.90
22364;DHT22;11349;53.412;-1.328;2023-03-01T01:34:21;5.40;99.90
22364;DHT22;11349;53.412;-1.328;2023-03-01T01:36:53;5.40;99.90
22364;DHT22;11349;53.412;-1.328;2023-03-01T01:39:20;5.40;99.90
22364;DHT22;11349;53.412;-1.328;2023-03-01T01:41:46;5.40;99.90
22364;DHT22;11349;53.412;-1.328;2023-03-01T01:44:26;5.40;99.90
22364;DHT22;11349;53.412;-1.328;2023-03-01T01:47:05;5.40;99.90
22364;DHT22;11349;53.412;-1.328;2023-03-01T01:49:37;5.40;99.90
22364;DHT22;11349;53.412;-1.328;2023-03-01T01:54:49;5.40;99.90
22364;DHT22;11349;53.412;-1.328;2023-03-01T01:57:24;5.30;99.90
22364;DHT22;11349;53.412;-1.328;2023-03-01T01:59:54;5.50;99.90
22364;DHT22;11349;53.412;-1.328;2023-03-01T02:02:21;5.50;99.90
22364;DHT22;11349;53.412;-1.328;2023-03-01T02:04:49;5.50;99.90
22364;DHT22;11349;53.412;-1.328;2023-03-01T02:07:19;5.30;99.90
22364;DHT22;11349;53.412;-1.328;2023-03-01T02:09:49;5.40;99.90
22364;DHT22;11349;53.412;-1.328;2023-03-01T02:12:17;5.40;99.90
22364;DHT22;11349;53.412;-1.328;2023-03-01T02:14:43;5.30;99.90
22364;DHT22;11349;53.412;-1.328;2023-03-01T02:17:11;5.30;99.90
22364;DHT22;11349;53.412;-1.328;2023-03-01T02:22:40;5.20;99.90
22364;DHT22;11349;53.412;-1.328;2023-03-01T02:28:07;5.30;99.90
22364;DHT22;11349;53.412;-1.328;2023-03-01T02:30:34;5.20;99.90
22364;DHT22;11349;53.412;-1.328;2023-03-01T02:33:03;5.30;99.90
22364;DHT22;11349;53.412;-1.328;2023-03-01T02:35:34;5.20;99.90
22364;DHT22;11349;53.412;-1.328;2023-03-01T02:38:01;5.30;99.90
22364;DHT22;11349;53.412;-1.328;2023-03-01T02:40:29;5.20;99.90
22364;DHT22;11349;53.412;-1.328;2023-03-01T02:42:59;5.30;99.90
22364;DHT22;11349;53.412;-1.328;2023-03-01T02:45:26;5.30;99.90
22364;DHT22;11349;53.412;-1.328;2023-03-01T02:47:56;5.20;99.90
22364;DHT22;11349;53.412;-1.328;2023-03-01T02:50:25;5.30;99.90
22364;DHT22;11349;53.412;-1.328;2023-03-01T02:53:01;5.20;99.90
22364;DHT22;11349;53.412;-1.328;2023-03-01T02:55:30;5.20;99.90
22364;DHT22;11349;53.412;-1.328;2023-03-01T02:57:56;5.20;99.90
22364;DHT22;11349;53.412;-1.328;2023-03-01T03:00:33;5.10;99.90
22364;DHT22;11349;53.412;-1.328;2023-03-01T03:03:01;5.20;99.90
22364;DHT22;11349;53.412;-1.328;2023-03-01T03:05:29;5.20;99.90
22364;DHT22;11349;53.412;-1.328;2023-03-01T03:07:56;5.20;99.90
22364;DHT22;11349;53.412;-1.328;2023-03-01T03:10:30;5.20;99.90
22364;DHT22;11349;53.412;-1.328;2023-03-01T03:13:03;5.10;99.90
22364;DHT22;11349;53.412;-1.328;2023-03-01T03:15:29;5.10;99.90
22364;DHT22;11349;53.412;-1.328;2023-03-01T03:17:56;5.20;99.90
22364;DHT22;11349;53.412;-1.328;2023-03-01T03:20:26;5.20;99.90
22364;DHT22;11349;53.412;-1.328;2023-03-01T03:22:54;5.20;99.90
22364;DHT22;11349;53.412;-1.328;2023-03-01T03:25:21;5.20;99.90
22364;DHT22;11349;53.412;-1.328;2023-03-01T03:27:48;5.20;99.90
22364;DHT22;11349;53.412;-1.328;2023-03-01T03:30:18;5.30;99.90
22364;DHT22;11349;53.412;-1.328;2023-03-01T03:32:47;5.20;99.90
22364;DHT22;11349;53.412;-1.328;2023-03-01T03:37:50;5.20;99.90
22364;DHT22;11349;53.412;-1.328;2023-03-01T03:42:59;5.20;99.90
22364;DHT22;11349;53.412;-1.328;2023-03-01T03:45:25;5.20;99.90
22364;DHT22;11349;53.412;-1.328;2023-03-01T03:47:51;5.10;99.90
22364;DHT22;11349;53.412;-1.328;2023-03-01T03:50:17;5.20;99.90
22364;DHT22;11349;53.412;-1.328;2023-03-01T03:52:43;5.20;99.90
22364;DHT22;11349;53.412;-1.328;2023-03-01T03:55:11;5.20;99.90
22364;DHT22;11349;53.412;-1.328;2023-03-01T03:57:38;5.20;99.90
22364;DHT22;11349;53.412;-1.328;2023-03-01T04:00:05;5.20;99.90
22364;DHT22;11349;53.412;-1.328;2023-03-01T04:02:31;5.10;99.90
22364;DHT22;11349;53.412;-1.328;2023-03-01T04:05:00;5.20;99.90
22364;DHT22;11349;53.412;-1.328;2023-03-01T04:07:26;5.20;99.90
22364;DHT22;11349;53.412;-1.328;2023-03-01T04:09:51;5.20;99.90
22364;DHT22;11349;53.412;-1.328;2023-03-01T04:12:17;5.20;99.90
22364;DHT22;11349;53.412;-1.328;2023-03-01T04:14:48;5.20;99.90
22364;DHT22;11349;53.412;-1.328;2023-03-01T04:17:14;5.20;99.90
22364;DHT22;11349;53.412;-1.328;2023-03-01T04:19:40;5.10;99.90
22364;DHT22;11349;53.412;-1.328;2023-03-01T04:22:05;5.20;99.90
22364;DHT22;11349;53.412;-1.328;2023-03-01T04:24:38;5.20;99.90
22364;DHT22;11349;53.412;-1.328;2023-03-01T04:27:03;5.10;99.90
22364;DHT22;11349;53.412;-1.328;2023-03-01T04:29:32;5.10;99.90
22364;DHT22;11349;53.412;-1.328;2023-03-01T04:31:58;5.20;99.90
22364;DHT22;11349;53.412;-1.328;2023-03-01T04:34:24;5.10;99.90
22364;DHT22;11349;53.412;-1.328;2023-03-01T04:36:52;5.20;99.90
22364;DHT22;11349;53.412;-1.328;2023-03-01T04:39:18;5.10;99.90
22364;DHT22;11349;53.412;-1.328;2023-03-01T04:41:43;5.20;99.90
22364;DHT22;11349;53.412;-1.328;2023-03-01T04:44:10;5.20;99.90
22364;DHT22;11349;53.412;-1.328;2023-03-01T04:46:36;5.10;99.90
22364;DHT22;11349;53.412;-1.328;2023-03-01T04:49:03;5.20;99.90
22364;DHT22;11349;53.412;-1.328;2023-03-01T04:51:28;5.10;99.90
22364;DHT22;11349;53.412;-1.328;2023-03-01T04:53:54;5.20;99.90
22364;DHT22;11349;53.412;-1.328;2023-03-01T04:56:20;5.10;99.90
22364;DHT22;11349;53.412;-1.328;2023-03-01T04:58:48;5.10;99.90
22364;DHT22;11349;53.412;-1.328;2023-03-01T05:01:18;5.10;99.90
22364;DHT22;11349;53.412;-1.328;2023-03-01T05:03:47;5.10;99.90
22364;DHT22;11349;53.412;-1.328;2023-03-01T05:06:13;5.10;99.90
22364;DHT22;11349;53.412;-1.328;2023-03-01T05:08:40;5.10;99.90
22364;DHT22;11349;53.412;-1.328;2023-03-01T05:11:06;5.10;99.90
22364;DHT22;11349;53.412;-1.328;2023-03-01T05:13:35;5.10;99.90
22364;DHT22;11349;53.412;-1.328;2023-03-01T05:16:02;5.10;99.90
22364;DHT22;11349;53.412;-1.328;2023-03-01T05:18:30;5.10;99.90
22364;DHT22;11349;53.412;-1.328;2023-03-01T05:21:05;5.00;99.90
22364;DHT22;11349;53.412;-1.328;2023-03-01T05:23:32;5.10;99.90
22364;DHT22;11349;53.412;-1.328;2023-03-01T05:25:59;5.00;99.90
22364;DHT22;11349;53.412;-1.328;2023-03-01T05:28:26;5.00;99.90
22364;DHT22;11349;53.412;-1.328;2023-03-01T05:30:54;5.10;99.90
22364;DHT22;11349;53.412;-1.328;2023-03-01T05:33:20;5.10;99.90
22364;DHT22;11349;53.412;-1.328;2023-03-01T05:35:48;5.10;99.90
22364;DHT22;11349;53.412;-1.328;2023-03-01T05:38:15;5.10;99.90
22364;DHT22;11349;53.412;-1.328;2023-03-01T05:40:42;5.10;99.90
22364;DHT22;11349;53.412;-1.328;2023-03-01T05:43:10;5.10;99.90
22364;DHT22;11349;53.412;-1.328;2023-03-01T05:45:37;5.00;99.90
22364;DHT22;11349;53.412;-1.328;2023-03-01T05:48:03;4.90;99.90
22364;DHT22;11349;53.412;-1.328;2023-03-01T05:50:33;4.90;99.90
22364;DHT22;11349;53.412;-1.328;2023-03-01T05:53:04;4.90;99.90
22364;DHT22;11349;53.412;-1.328;2023-03-01T05:55:34;4.90;99.90
22364;DHT22;11349;53.412;-1.328;2023-03-01T05:58:02;4.80;99.90
22364;DHT22;11349;53.412;-1.328;2023-03-01T06:00:29;4.80;99.90
22364;DHT22;11349;53.412;-1.328;2023-03-01T06:02:56;4.80;99.90
22364;DHT22;11349;53.412;-1.328;2023-03-01T06:05:23;4.80;99.90
22364;DHT22;11349;53.412;-1.328;2023-03-01T06:07:49;4.80;99.90
22364;DHT22;11349;53.412;-1.328;2023-03-01T06:10:16;4.80;99.90
22364;DHT22;11349;53.412;-1.328;2023-03-01T06:12:42;4.70;99.90
22364;DHT22;11349;53.412;-1.328;2023-03-01T06:15:10;4.70;99.90
22364;DHT22;11349;53.412;-1.328;2023-03-01T06:17:38;4.70;99.90
22364;DHT22;11349;53.412;-1.328;2023-03-01T06:22:35;4.70;99.90
22364;DHT22;11349;53.412;-1.328;2023-03-01T06:25:01;4.80;99.90
22364;DHT22;11349;53.412;-1.328;2023-03-01T06:27:27;4.80;99.90
22364;DHT22;11349;53.412;-1.328;2023-03-01T06:29:56;4.80;99.90
22364;DHT22;11349;53.412;-1.328;2023-03-01T06:32:22;4.80;99.90
22364;DHT22;11349;53.412;-1.328;2023-03-01T06:34:47;4.80;99.90
22364;DHT22;11349;53.412;-1.328;2023-03-01T06:37:13;4.80;99.90
22364;DHT22;11349;53.412;-1.328;2023-03-01T06:39:39;4.80;99.90
22364;DHT22;11349;53.412;-1.328;2023-03-01T06:42:04;4.80;99.90
22364;DHT22;11349;53.412;-1.328;2023-03-01T06:44:30;4.90;99.90
22364;DHT22;11349;53.412;-1.328;2023-03-01T06:46:56;4.90;99.90
22364;DHT22;11349;53.412;-1.328;2023-03-01T06:49:22;4.80;99.90
22364;DHT22;11349;53.412;-1.328;2023-03-01T06:51:47;4.90;99.90
22364;DHT22;11349;53.412;-1.328;2023-03-01T06:54:13;4.90;99.90
22364;DHT22;11349;53.412;-1.328;2023-03-01T06:56:39;4.90;99.90
22364;DHT22;11349;53.412;-1.328;2023-03-01T06:59:05;4.90;99.90
22364;DHT22;11349;53.412;-1.328;2023-03-01T07:01:31;4.90;99.90
22364;DHT22;11349;53.412;-1.328;2023-03-01T07:03:57;4.90;99.90
22364;DHT22;11349;53.412;-1.328;2023-03-01T07:06:23;4.90;99.90
22364;DHT22;11349;53.412;-1.328;2023-03-01T07:08:49;4.90;99.90
22364;DHT22;11349;53.412;-1.328;2023-03-01T07:11:15;4.90;99.90
22364;DHT22;11349;53.412;-1.328;2023-03-01T07:13:41;5.00;99.90
22364;DHT22;11349;53.412;-1.328;2023-03-01T07:16:07;5.00;99.90
22364;DHT22;11349;53.412;-1.328;2023-03-01T07:18:33;5.00;99.90
22364;DHT22;11349;53.412;-1.328;2023-03-01T07:21:04;5.00;99.90
22364;DHT22;11349;53.412;-1.328;2023-03-01T07:23:30;4.90;99.90
22364;DHT22;11349;53.412;-1.328;2023-03-01T07:25:58;5.00;99.90
22364;DHT22;11349;53.412;-1.328;2023-03-01T07:28:25;5.00;99.90
22364;DHT22;11349;53.412;-1.328;2023-03-01T07:30:50;5.00;99.90
22364;DHT22;11349;53.412;-1.328;2023-03-01T07:33:17;5.00;99.90
22364;DHT22;11349;53.412;-1.328;2023-03-01T07:35:42;5.00;99.90
22364;DHT22;11349;53.412;-1.328;2023-03-01T07:38:09;5.00;99.90
22364;DHT22;11349;53.412;-1.328;2023-03-01T07:40:35;5.10;99.90
22364;DHT22;11349;53.412;-1.328;2023-03-01T07:43:01;5.00;99.90
22364;DHT22;11349;53.412;-1.328;2023-03-01T07:45:27;5.00;99.90
22364;DHT22;11349;53.412;-1.328;2023-03-01T07:47:54;5.00;99.90
22364;DHT22;11349;53.412;-1.328;2023-03-01T07:50:21;5.00;99.90
22364;DHT22;11349;53.412;-1.328;2023-03-01T07:52:48;5.10;99.90
22364;DHT22;11349;53.412;-1.328;2023-03-01T07:55:15;5.10;99.90
22364;DHT22;11349;53.412;-1.328;2023-03-01T07:57:41;5.20;99.90
22364;DHT22;11349;53.412;-1.328;2023-03-01T08:00:09;5.20;99.90
22364;DHT22;11349;53.412;-1.328;2023-03-01T08:02:35;5.40;99.90
22364;DHT22;11349;53.412;-1.328;2023-03-01T08:05:01;5.50;99.90
22364;DHT22;11349;53.412;-1.328;2023-03-01T08:07:27;5.50;99.90
22364;DHT22;11349;53.412;-1.328;2023-03-01T08:09:52;5.50;99.90
22364;DHT22;11349;53.412;-1.328;2023-03-01T08:12:18;5.50;99.90
22364;DHT22;11349;53.412;-1.328;2023-03-01T08:14:44;5.50;99.90
22364;DHT22;11349;53.412;-1.328;2023-03-01T08:17:09;5.50;99.90
22364;DHT22;11349;53.412;-1.328;2023-03-01T08:19:35;5.60;99.90
22364;DHT22;11349;53.412;-1.328;2023-03-01T08:22:02;5.60;99.90
22364;DHT22;11349;53.412;-1.328;2023-03-01T08:24:28;5.50;99.90
22364;DHT22;11349;53.412;-1.328;2023-03-01T08:26:54;5.50;99.90
22364;DHT22;11349;53.412;-1.328;2023-03-01T08:29:19;5.60;99.90
22364;DHT22;11349;53.412;-1.328;2023-03-01T08:31:45;5.60;99.90
22364;DHT22;11349;53.412;-1.328;2023-03-01T08:34:14;5.60;99.90
22364;DHT22;11349;53.412;-1.328;2023-03-01T08:36:41;5.60;99.90
22364;DHT22;11349;53.412;-1.328;2023-03-01T08:39:09;5.70;99.90
22364;DHT22;11349;53.412;-1.328;2023-03-01T08:41:35;5.70;99.90
22364;DHT22;11349;53.412;-1.328;2023-03-01T08:44:01;5.70;99.90
22364;DHT22;11349;53.412;-1.328;2023-03-01T08:46:27;5.80;99.90
22364;DHT22;11349;53.412;-1.328;2023-03-01T08:48:53;5.80;99.90
22364;DHT22;11349;53.412;-1.328;2023-03-01T08:51:20;5.80;99.90
22364;DHT22;11349;53.412;-1.328;2023-03-01T08:53:46;5.70;99.90
22364;DHT22;11349;53.412;-1.328;2023-03-01T08:56:13;5.70;99.90
22364;DHT22;11349;53.412;-1.328;2023-03-01T08:58:39;5.60;99.90
22364;DHT22;11349;53.412;-1.328;2023-03-01T09:01:12;5.60;99.90
22364;DHT22;11349;53.412;-1.328;2023-03-01T09:03:38;5.70;99.90
22364;DHT22;11349;53.412;-1.328;2023-03-01T09:06:05;5.60;99.90
22364;DHT22;11349;53.412;-1.328;2023-03-01T09:08:35;5.60;99.90
22364;DHT22;11349;53.412;-1.328;2023-03-01T09:11:03;5.80;99.90
22364;DHT22;11349;53.412;-1.328;2023-03-01T09:13:29;5.90;99.90
22364;DHT22;11349;53.412;-1.328;2023-03-01T09:15:57;5.80;99.90
22364;DHT22;11349;53.412;-1.328;2023-03-01T09:18:23;5.90;99.90
22364;DHT22;11349;53.412;-1.328;2023-03-01T09:20:49;5.90;99.90
22364;DHT22;11349;53.412;-1.328;2023-03-01T09:23:15;5.90;99.90
22364;DHT22;11349;53.412;-1.328;2023-03-01T09:25:40;6.00;99.90
22364;DHT22;11349;53.412;-1.328;2023-03-01T09:28:06;6.20;99.90
22364;DHT22;11349;53.412;-1.328;2023-03-01T09:30:32;6.50;99.90
22364;DHT22;11349;53.412;-1.328;2023-03-01T09:32:58;6.60;99.90
22364;DHT22;11349;53.412;-1.328;2023-03-01T09:35:24;6.70;99.90
22364;DHT22;11349;53.412;-1.328;2023-03-01T09:37:50;6.60;99.90
22364;DHT22;11349;53.412;-1.328;2023-03-01T09:40:20;6.70;99.90
22364;DHT22;11349;53.412;-1.328;2023-03-01T09:43:07;6.60;99.90
22364;DHT22;11349;53.412;-1.328;2023-03-01T09:45:40;6.70;99.90
22364;DHT22;11349;53.412;-1.328;2023-03-01T09:48:15;6.80;99.90
22364;DHT22;11349;53.412;-1.328;2023-03-01T09:50:43;6.80;99.90
22364;DHT22;11349;53.412;-1.328;2023-03-01T09:53:16;6.70;99.90
22364;DHT22;11349;53.412;-1.328;2023-03-01T09:58:58;6.60;99.90
22364;DHT22;11349;53.412;-1.328;2023-03-01T10:01:35;6.60;99.90
22364;DHT22;11349;53.412;-1.328;2023-03-01T10:09:22;6.70;99.90
22364;DHT22;11349;53.412;-1.328;2023-03-01T10:11:53;6.80;99.90
22364;DHT22;11349;53.412;-1.328;2023-03-01T10:17:07;6.80;99.90
22364;DHT22;11349;53.412;-1.328;2023-03-01T10:19:41;6.60;99.90
22364;DHT22;11349;53.412;-1.328;2023-03-01T10:22:15;6.80;99.90
22364;DHT22;11349;53.412;-1.328;2023-03-01T10:24:43;7.00;99.90
22364;DHT22;11349;53.412;-1.328;2023-03-01T10:30:35;7.00;99.90
22364;DHT22;11349;53.412;-1.328;2023-03-01T10:33:14;7.10;99.90
22364;DHT22;11349;53.412;-1.328;2023-03-01T10:35:42;7.20;99.90
22364;DHT22;11349;53.412;-1.328;2023-03-01T10:38:15;7.10;99.90
22364;DHT22;11349;53.412;-1.328;2023-03-01T10:40:59;7.20;99.90
22364;DHT22;11349;53.412;-1.328;2023-03-01T10:43:43;7.10;99.90
22364;DHT22;11349;53.412;-1.328;2023-03-01T10:51:41;6.90;99.90
22364;DHT22;11349;53.412;-1.328;2023-03-01T10:54:22;6.70;99.90
22364;DHT22;11349;53.412;-1.328;2023-03-01T10:56:55;6.70;99.90
22364;DHT22;11349;53.412;-1.328;2023-03-01T10:59:41;6.80;99.90
22364;DHT22;11349;53.412;-1.328;2023-03-01T11:02:30;6.90;99.90
22364;DHT22;11349;53.412;-1.328;2023-03-01T11:05:02;7.10;99.90
22364;DHT22;11349;53.412;-1.328;2023-03-01T11:07:47;7.10;99.90
22364;DHT22;11349;53.412;-1.328;2023-03-01T11:10:36;7.20;99.90
22364;DHT22;11349;53.412;-1.328;2023-03-01T11:13:16;7.30;99.90
22364;DHT22;11349;53.412;-1.328;2023-03-01T11:15:43;7.40;99.90
22364;DHT22;11349;53.412;-1.328;2023-03-01T11:18:20;7.60;99.90
22364;DHT22;11349;53.412;-1.328;2023-03-01T11:20:46;7.70;99.90
22364;DHT22;11349;53.412;-1.328;2023-03-01T11:23:14;7.60;99.90
22364;DHT22;11349;53.412;-1.328;2023-03-01T11:25:43;7.60;99.90
22364;DHT22;11349;53.412;-1.328;2023-03-01T11:28:14;7.80;99.90
22364;DHT22;11349;53.412;-1.328;2023-03-01T11:36:35;7.40;99.90
22364;DHT22;11349;53.412;-1.328;2023-03-01T11:39:32;7.20;99.90
22364;DHT22;11349;53.412;-1.328;2023-03-01T11:42:10;7.20;99.90
22364;DHT22;11349;53.412;-1.328;2023-03-01T11:44:37;7.30;99.90
22364;DHT22;11349;53.412;-1.328;2023-03-01T11:47:19;7.10;99.90
22364;DHT22;11349;53.412;-1.328;2023-03-01T12:06:00;7.10;99.90
22364;DHT22;11349;53.412;-1.328;2023-03-01T12:08:45;7.30;99.90
22364;DHT22;11349;53.412;-1.328;2023-03-01T12:11:24;7.50;99.90
22364;DHT22;11349;53.412;-1.328;2023-03-01T12:14:13;7.70;99.90
22364;DHT22;11349;53.412;-1.328;2023-03-01T12:19:38;7.90;99.90
22364;DHT22;11349;53.412;-1.328;2023-03-01T12:25:11;8.00;99.90
22364;DHT22;11349;53.412;-1.328;2023-03-01T12:28:04;8.10;99.90
22364;DHT22;11349;53.412;-1.328;2023-03-01T12:33:58;8.00;99.90
22364;DHT22;11349;53.412;-1.328;2023-03-01T12:36:41;7.90;99.90
22364;DHT22;11349;53.412;-1.328;2023-03-01T12:51:44;7.90;99.90
22364;DHT22;11349;53.412;-1.328;2023-03-01T12:54:28;7.90;99.90
22364;DHT22;11349;53.412;-1.328;2023-03-01T12:56:57;7.90;99.90
22364;DHT22;11349;53.412;-1.328;2023-03-01T13:02:22;7.80;99.90
22364;DHT22;11349;53.412;-1.328;2023-03-01T13:15:35;8.30;99.90
22364;DHT22;11349;53.412;-1.328;2023-03-01T13:21:04;8.00;99.90
22364;DHT22;11349;53.412;-1.328;2023-03-01T13:23:34;8.10;99.90
22364;DHT22;11349;53.412;-1.328;2023-03-01T13:26:09;8.10;99.90
22364;DHT22;11349;53.412;-1.328;2023-03-01T13:44:24;7.80;99.90
22364;DHT22;11349;53.412;-1.328;2023-03-01T13:47:15;7.80;99.90
22364;DHT22;11349;53.412;-1.328;2023-03-01T13:49:55;7.70;99.90
22364;DHT22;11349;53.412;-1.328;2023-03-01T13:55:00;7.80;99.90
22364;DHT22;11349;53.412;-1.328;2023-03-01T13:57:34;7.70;99.90
22364;DHT22;11349;53.412;-1.328;2023-03-01T14:00:03;7.70;99.90
22364;DHT22;11349;53.412;-1.328;2023-03-01T14:02:30;7.80;99.90
22364;DHT22;11349;53.412;-1.328;2023-03-01T14:04:58;7.70;99.90
22364;DHT22;11349;53.412;-1.328;2023-03-01T14:07:25;7.60;99.90
22364;DHT22;11349;53.412;-1.328;2023-03-01T14:09:59;7.70;99.90
22364;DHT22;11349;53.412;-1.328;2023-03-01T14:12:44;7.60;99.90
22364;DHT22;11349;53.412;-1.328;2023-03-01T14:17:53;7.20;99.90
22364;DHT22;11349;53.412;-1.328;2023-03-01T14:20:27;7.10;99.90
22364;DHT22;11349;53.412;-1.328;2023-03-01T14:22:59;7.00;99.90
22364;DHT22;11349;53.412;-1.328;2023-03-01T14:25:31;6.90;99.90
22364;DHT22;11349;53.412;-1.328;2023-03-01T14:30:42;6.80;99.90
22364;DHT22;11349;53.412;-1.328;2023-03-01T14:35:59;7.20;99.90
22364;DHT22;11349;53.412;-1.328;2023-03-01T14:43:34;7.20;99.90
22364;DHT22;11349;53.412;-1.328;2023-03-01T14:46:00;7.30;99.90
22364;DHT22;11349;53.412;-1.328;2023-03-01T14:48:28;7.20;99.90
22364;DHT22;11349;53.412;-1.328;2023-03-01T14:50:54;7.40;99.90
22364;DHT22;11349;53.412;-1.328;2023-03-01T14:53:25;7.20;99.90
22364;DHT22;11349;53.412;-1.328;2023-03-01T14:55:54;7.20;99.90
22364;DHT22;11349;53.412;-1.328;2023-03-01T14:58:23;7.30;99.90
22364;DHT22;11349;53.412;-1.328;2023-03-01T15:01:10;7.40;99.90
22364;DHT22;11349;53.412;-1.328;2023-03-01T15:03:48;7.40;99.90
22364;DHT22;11349;53.412;-1.328;2023-03-01T15:06:18;7.40;99.90
22364;DHT22;11349;53.412;-1.328;2023-03-01T15:08:46;7.40;99.90
22364;DHT22;11349;53.412;-1.328;2023-03-01T15:11:32;7.50;99.90
22364;DHT22;11349;53.412;-1.328;2023-03-01T15:13:58;7.40;99.90
22364;DHT22;11349;53.412;-1.328;2023-03-01T15:16:27;7.50;99.90
22364;DHT22;11349;53.412;-1.328;2023-03-01T15:18:59;7.40;99.90
22364;DHT22;11349;53.412;-1.328;2023-03-01T15:24:06;7.40;99.90
22364;DHT22;11349;53.412;-1.328;2023-03-01T15:26:44;7.30;99.90
22364;DHT22;11349;53.412;-1.328;2023-03-01T15:29:17;7.30;99.90
22364;DHT22;11349;53.412;-1.328;2023-03-01T15:32:00;7.20;99.90
22364;DHT22;11349;53.412;-1.328;2023-03-01T15:34:33;7.20;99.90
22364;DHT22;11349;53.412;-1.328;2023-03-01T15:37:03;7.00;99.90
22364;DHT22;11349;53.412;-1.328;2023-03-01T15:39:43;6.80;99.90
22364;DHT22;11349;53.412;-1.328;2023-03-01T15:47:47;6.90;99.90
22364;DHT22;11349;53.412;-1.328;2023-03-01T15:50:33;6.80;99.90
22364;DHT22;11349;53.412;-1.328;2023-03-01T15:53:00;6.80;99.90
22364;DHT22;11349;53.412;-1.328;2023-03-01T15:55:29;6.90;99.90
22364;DHT22;11349;53.412;-1.328;2023-03-01T15:58:16;7.00;99.90
22364;DHT22;11349;53.412;-1.328;2023-03-01T16:00:43;6.90;99.90
22364;DHT22;11349;53.412;-1.328;2023-03-01T16:03:11;6.90;99.90
22364;DHT22;11349;53.412;-1.328;2023-03-01T16:05:38;6.80;99.90
22364;DHT22;11349;53.412;-1.328;2023-03-01T16:08:05;6.80;99.90
22364;DHT22;11349;53.412;-1.328;2023-03-01T16:10:32;6.80;99.90
22364;DHT22;11349;53.412;-1.328;2023-03-01T16:12:58;6.80;99.90
22364;DHT22;11349;53.412;-1.328;2023-03-01T16:15:26;6.80;99.90
22364;DHT22;11349;53.412;-1.328;2023-03-01T16:17:53;6.80;99.90
22364;DHT22;11349;53.412;-1.328;2023-03-01T16:20:20;6.70;99.90
22364;DHT22;11349;53.412;-1.328;2023-03-01T16:22:46;6.70;99.90
22364;DHT22;11349;53.412;-1.328;2023-03-01T16:25:17;6.80;99.90
22364;DHT22;11349;53.412;-1.328;2023-03-01T16:27:47;6.80;99.90
22364;DHT22;11349;53.412;-1.328;2023-03-01T16:30:15;6.80;99.90
22364;DHT22;11349;53.412;-1.328;2023-03-01T16:32:43;6.80;99.90
22364;DHT22;11349;53.412;-1.328;2023-03-01T16:35:12;6.80;99.90
22364;DHT22;11349;53.412;-1.328;2023-03-01T16:37:39;6.90;99.90
22364;DHT22;11349;53.412;-1.328;2023-03-01T16:40:07;6.80;99.90
22364;DHT22;11349;53.412;-1.328;2023-03-01T16:42:37;6.80;99.90
22364;DHT22;11349;53.412;-1.328;2023-03-01T16:45:03;6.90;99.90
22364;DHT22;11349;53.412;-1.328;2023-03-01T16:47:29;6.90;99.90
22364;DHT22;11349;53.412;-1.328;2023-03-01T16:49:55;6.70;99.90
22364;DHT22;11349;53.412;-1.328;2023-03-01T16:52:22;6.70;99.90
22364;DHT22;11349;53.412;-1.328;2023-03-01T16:54:48;6.70;99.90
22364;DHT22;11349;53.412;-1.328;2023-03-01T16:57:14;6.70;99.90
22364;DHT22;11349;53.412;-1.328;2023-03-01T16:59:40;6.60;99.90
22364;DHT22;11349;53.412;-1.328;2023-03-01T17:02:08;6.50;99.90
22364;DHT22;11349;53.412;-1.328;2023-03-01T17:04:36;6.60;99.90
22364;DHT22;11349;53.412;-1.328;2023-03-01T17:07:02;6.40;99.90
22364;DHT22;11349;53.412;-1.328;2023-03-01T17:09:28;6.40;99.90
22364;DHT22;11349;53.412;-1.328;2023-03-01T17:11:54;6.50;99.90
22364;DHT22;11349;53.412;-1.328;2023-03-01T17:14:20;6.40;99.90
22364;DHT22;11349;53.412;-1.328;2023-03-01T17:16:46;6.40;99.90
22364;DHT22;11349;53.412;-1.328;2023-03-01T17:19:12;6.40;99.90
22364;DHT22;11349;53.412;-1.328;2023-03-01T17:21:43;6.50;99.90
22364;DHT22;11349;53.412;-1.328;2023-03-01T17:24:09;6.30;99.90
22364;DHT22;11349;53.412;-1.328;2023-03-01T17:26:35;6.30;99.90
22364;DHT22;11349;53.412;-1.328;2023-03-01T17:29:01;6.30;99.90
22364;DHT22;11349;53.412;-1.328;2023-03-01T17:31:28;6.30;99.90
22364;DHT22;11349;53.412;-1.328;2023-03-01T17:33:53;6.30;99.90
22364;DHT22;11349;53.412;-1.328;2023-03-01T17:36:19;6.30;99.90
22364;DHT22;11349;53.412;-1.328;2023-03-01T17:38:45;6.20;99.90
22364;DHT22;11349;53.412;-1.328;2023-03-01T17:41:11;6.20;99.90
22364;DHT22;11349;53.412;-1.328;2023-03-01T17:43:37;6.30;99.90
22364;DHT22;11349;53.412;-1.328;2023-03-01T17:46:03;6.30;99.90
22364;DHT22;11349;53.412;-1.328;2023-03-01T17:48:29;6.30;99.90
22364;DHT22;11349;53.412;-1.328;2023-03-01T17:50:55;6.30;99.90
22364;DHT22;11349;53.412;-1.328;2023-03-01T17:53:21;6.30;99.90
22364;DHT22;11349;53.412;-1.328;2023-03-01T17:55:47;6.20;99.90
22364;DHT22;11349;53.412;-1.328;2023-03-01T17:58:18;6.20;99.90